Ceiba, PR (00735)

6:17 PM AST on September 24, 2018 (GMT -0400)
Urb. Alturas de San Pedro | | Change Station
Active Advisory: Coastal Hazard Statement Active Notice: Coastal Hazard Statement

Elev 121 ft 18.31 °N, 65.67 °W | Updated 45 seconds ago

Rain
Rain Mist
79 °F
Feels Like 83 °F
N
2
Wind Variable Wind from WNW
Gusts 0.0 mph

Today
High -- | Low -- °F
--% Chance of Precip.
Yesterday
High -- | Low -- °F
Precip. -- in
Pressure 29.99 in
Visibility 3.0 miles
Clouds Scattered Clouds 2400 ft
Mostly Cloudy 3600 ft
Mostly Cloudy 4700 ft
Heat Index 83 °F
Dew Point 75 °F
Humidity 90%
Rainfall in
Snow Depth Not available.
6:11 AM 6:17 PM
Full, 100% visible
METAR TJNR 242153Z AUTO 04010G21KT 3SM RA BR SCT024 BKN036 BKN047 25/24 A2999 RMK AO2 RAB30E42B50 SLP154 P0009 T02500244
Pressure 29.99 in
Visibility 3.0 miles
Clouds Scattered Clouds 2400 ft
Mostly Cloudy 3600 ft
Mostly Cloudy 4700 ft
Heat Index 83 °F
Dew Point 75 °F
Humidity 90%
Rainfall in
Snow Depth Not available.
6:11 AM 6:17 PM
Full, 100% visible
METAR TJNR 242153Z AUTO 04010G21KT 3SM RA BR SCT024 BKN036 BKN047 25/24 A2999 RMK AO2 RAB30E42B50 SLP154 P0009 T02500244

Get Your Daily Forecast Email!

Thanks for signing up!

Be on the lookout for a verification email in your inbox.

You'll start receiving severe weather alerts in your inbox..

×

10-Day Weather Forecast

Almanac

Astronomy

Sep. 24, 2018 Rise Set
Actual Time
Civil Twilight
Nautical Twilight
Astronomical Twilight
Moon
Length of Visible Light
Length of Day
Tomorrow will be .
, % of the Moon is Illuminated

Today's Extremes

State Highs State Lows

Community

WunderPhotos

Category 6

Welcome to Category 6. This is the collective home for Weather Underground's featured writeups by Dr. Jeff Masters (right), Bob Henson (left), Chris Burt, and other regular contributors.

Nearby

Air Quality

  Air Quality AQ Index Pollutant
Not available.

Snow Depth

Station Depth Elevation

Earthquake Activity

City Distance Mag. Time & Date
Minimum magnitude displayed is 2.5.

Coastal Water Temperatures

Place Temperature

Stations

Nearby Weather Stations

Station Location Temp. Windchill Dew Point Humidity Wind Precip. Elev Updated Type
                   

Watches & Warnings

Coastal Hazard Statement
Issued: 10:13 AM AST Sep. 24, 2018 – National Weather Service

... High rip current risk remains in effect through late tonight...

* location... northern beaches of Puerto Rico and Culebra.

* Timing... through late tonight.

* Impacts... life threatening currents that can carry even the
best swimmers out to sea.

Precautionary/preparedness actions...

There is a high risk of rip currents.

Swim near a lifeguard. If caught in a rip current, relax and
float. Don't swim against the current. If able, swim in a
direction following the shoreline. If unable to escape, face the
shore and call or wave for help.